sensor_id;sensor_type;location;lat;lon;timestamp;temperature;humidity
1453;DHT22;720;47.738;7.998;2023-07-31T00:02:17;13.90;99.90
1453;DHT22;720;47.738;7.998;2023-07-31T00:04:43;13.90;99.90
1453;DHT22;720;47.738;7.998;2023-07-31T00:07:08;13.90;99.90
1453;DHT22;720;47.738;7.998;2023-07-31T00:09:34;13.90;99.90
1453;DHT22;720;47.738;7.998;2023-07-31T00:12:00;13.90;99.90
1453;DHT22;720;47.738;7.998;2023-07-31T00:14:25;13.90;99.90
1453;DHT22;720;47.738;7.998;2023-07-31T00:16:51;13.80;99.90
1453;DHT22;720;47.738;7.998;2023-07-31T00:19:16;13.60;99.90
1453;DHT22;720;47.738;7.998;2023-07-31T00:21:42;13.60;99.90
1453;DHT22;720;47.738;7.998;2023-07-31T00:24:07;13.50;99.90
1453;DHT22;720;47.738;7.998;2023-07-31T00:26:33;13.60;99.90
1453;DHT22;720;47.738;7.998;2023-07-31T00:28:59;13.70;99.90
1453;DHT22;720;47.738;7.998;2023-07-31T00:31:24;13.70;99.90
1453;DHT22;720;47.738;7.998;2023-07-31T00:33:50;13.60;99.90
1453;DHT22;720;47.738;7.998;2023-07-31T00:36:16;13.50;99.90
1453;DHT22;720;47.738;7.998;2023-07-31T00:38:43;13.30;99.90
1453;DHT22;720;47.738;7.998;2023-07-31T00:41:09;13.30;99.90
1453;DHT22;720;47.738;7.998;2023-07-31T00:43:34;13.30;99.90
1453;DHT22;720;47.738;7.998;2023-07-31T00:46:00;13.20;99.90
1453;DHT22;720;47.738;7.998;2023-07-31T00:48:26;13.30;99.90
1453;DHT22;720;47.738;7.998;2023-07-31T00:50:52;13.40;99.90
1453;DHT22;720;47.738;7.998;2023-07-31T00:53:17;13.40;99.90
1453;DHT22;720;47.738;7.998;2023-07-31T00:55:43;13.40;99.90
1453;DHT22;720;47.738;7.998;2023-07-31T00:58:09;13.30;99.90
1453;DHT22;720;47.738;7.998;2023-07-31T01:00:35;13.30;99.90
1453;DHT22;720;47.738;7.998;2023-07-31T01:03:01;13.30;99.90
1453;DHT22;720;47.738;7.998;2023-07-31T01:05:39;13.30;99.90
1453;DHT22;720;47.738;7.998;2023-07-31T01:08:23;13.20;99.90
1453;DHT22;720;47.738;7.998;2023-07-31T01:10:58;13.20;99.90
1453;DHT22;720;47.738;7.998;2023-07-31T01:13:25;13.10;99.90
1453;DHT22;720;47.738;7.998;2023-07-31T01:15:52;13.00;99.90
1453;DHT22;720;47.738;7.998;2023-07-31T01:18:17;13.00;99.90
1453;DHT22;720;47.738;7.998;2023-07-31T01:20:48;13.00;99.90
1453;DHT22;720;47.738;7.998;2023-07-31T01:31:23;13.00;99.90
1453;DHT22;720;47.738;7.998;2023-07-31T01:33:50;13.00;99.90
1453;DHT22;720;47.738;7.998;2023-07-31T01:36:17;13.00;99.90
1453;DHT22;720;47.738;7.998;2023-07-31T01:38:43;12.80;99.90
1453;DHT22;720;47.738;7.998;2023-07-31T01:41:08;13.00;99.90
1453;DHT22;720;47.738;7.998;2023-07-31T01:43:34;12.90;99.90
1453;DHT22;720;47.738;7.998;2023-07-31T01:45:59;12.90;99.90
1453;DHT22;720;47.738;7.998;2023-07-31T01:48:25;12.80;99.90
1453;DHT22;720;47.738;7.998;2023-07-31T01:50:51;12.70;99.90
1453;DHT22;720;47.738;7.998;2023-07-31T01:53:17;12.70;99.90
1453;DHT22;720;47.738;7.998;2023-07-31T01:55:43;12.70;99.90
1453;DHT22;720;47.738;7.998;2023-07-31T01:58:09;12.80;99.90
1453;DHT22;720;47.738;7.998;2023-07-31T02:00:34;12.80;99.90
1453;DHT22;720;47.738;7.998;2023-07-31T02:03:00;12.80;99.90
1453;DHT22;720;47.738;7.998;2023-07-31T02:05:26;12.70;99.90
1453;DHT22;720;47.738;7.998;2023-07-31T02:07:51;12.60;99.90
1453;DHT22;720;47.738;7.998;2023-07-31T02:10:17;12.60;99.90
1453;DHT22;720;47.738;7.998;2023-07-31T02:12:42;12.50;99.90
1453;DHT22;720;47.738;7.998;2023-07-31T02:15:08;12.50;99.90
1453;DHT22;720;47.738;7.998;2023-07-31T02:17:34;12.60;99.90
1453;DHT22;720;47.738;7.998;2023-07-31T02:20:00;12.60;99.90
1453;DHT22;720;47.738;7.998;2023-07-31T02:22:25;12.50;99.90
1453;DHT22;720;47.738;7.998;2023-07-31T02:24:51;12.40;99.90
1453;DHT22;720;47.738;7.998;2023-07-31T02:27:16;12.40;99.90
1453;DHT22;720;47.738;7.998;2023-07-31T02:29:42;12.40;99.90
1453;DHT22;720;47.738;7.998;2023-07-31T02:32:08;12.30;99.90
1453;DHT22;720;47.738;7.998;2023-07-31T02:34:33;12.20;99.90
1453;DHT22;720;47.738;7.998;2023-07-31T02:36:59;12.20;99.90
1453;DHT22;720;47.738;7.998;2023-07-31T02:39:24;12.20;99.90
1453;DHT22;720;47.738;7.998;2023-07-31T02:41:50;12.20;99.90
1453;DHT22;720;47.738;7.998;2023-07-31T02:44:16;12.20;99.90
1453;DHT22;720;47.738;7.998;2023-07-31T02:46:41;12.20;99.90
1453;DHT22;720;47.738;7.998;2023-07-31T02:49:07;12.20;99.90
1453;DHT22;720;47.738;7.998;2023-07-31T02:51:32;12.20;99.90
1453;DHT22;720;47.738;7.998;2023-07-31T02:53:58;12.10;99.90
1453;DHT22;720;47.738;7.998;2023-07-31T02:56:24;12.10;99.90
1453;DHT22;720;47.738;7.998;2023-07-31T02:58:49;11.90;99.90
1453;DHT22;720;47.738;7.998;2023-07-31T03:01:15;12.10;99.90
1453;DHT22;720;47.738;7.998;2023-07-31T03:03:41;12.20;99.90
1453;DHT22;720;47.738;7.998;2023-07-31T03:06:07;12.20;99.90
1453;DHT22;720;47.738;7.998;2023-07-31T03:08:33;12.30;99.90
1453;DHT22;720;47.738;7.998;2023-07-31T03:10:58;12.20;99.90
1453;DHT22;720;47.738;7.998;2023-07-31T03:13:24;12.10;99.90
1453;DHT22;720;47.738;7.998;2023-07-31T03:15:50;12.10;99.90
1453;DHT22;720;47.738;7.998;2023-07-31T03:18:16;12.00;99.90
1453;DHT22;720;47.738;7.998;2023-07-31T03:20:44;11.90;99.90
1453;DHT22;720;47.738;7.998;2023-07-31T03:23:10;12.00;99.90
1453;DHT22;720;47.738;7.998;2023-07-31T03:25:36;12.00;99.90
1453;DHT22;720;47.738;7.998;2023-07-31T03:28:01;12.00;99.90
1453;DHT22;720;47.738;7.998;2023-07-31T03:30:27;12.00;99.90
1453;DHT22;720;47.738;7.998;2023-07-31T03:32:52;11.80;99.90
1453;DHT22;720;47.738;7.998;2023-07-31T03:35:18;11.90;99.90
1453;DHT22;720;47.738;7.998;2023-07-31T03:37:44;11.80;99.90
1453;DHT22;720;47.738;7.998;2023-07-31T03:40:10;11.80;99.90
1453;DHT22;720;47.738;7.998;2023-07-31T03:42:36;11.70;99.90
1453;DHT22;720;47.738;7.998;2023-07-31T03:45:01;11.80;99.90
1453;DHT22;720;47.738;7.998;2023-07-31T03:47:27;11.90;99.90
1453;DHT22;720;47.738;7.998;2023-07-31T03:49:53;11.90;99.90
1453;DHT22;720;47.738;7.998;2023-07-31T03:52:18;11.90;99.90
1453;DHT22;720;47.738;7.998;2023-07-31T03:54:44;12.00;99.90
1453;DHT22;720;47.738;7.998;2023-07-31T03:57:10;12.10;99.90
1453;DHT22;720;47.738;7.998;2023-07-31T03:59:36;12.00;99.90
1453;DHT22;720;47.738;7.998;2023-07-31T04:02:04;12.00;99.90
1453;DHT22;720;47.738;7.998;2023-07-31T04:04:30;12.00;99.90
1453;DHT22;720;47.738;7.998;2023-07-31T04:06:55;12.10;99.90
1453;DHT22;720;47.738;7.998;2023-07-31T04:09:21;12.30;99.90
1453;DHT22;720;47.738;7.998;2023-07-31T04:11:47;12.40;99.90
1453;DHT22;720;47.738;7.998;2023-07-31T04:14:12;12.30;99.90
1453;DHT22;720;47.738;7.998;2023-07-31T04:16:38;12.30;99.90
1453;DHT22;720;47.738;7.998;2023-07-31T04:19:04;12.40;99.90
1453;DHT22;720;47.738;7.998;2023-07-31T04:21:30;12.00;99.90
1453;DHT22;720;47.738;7.998;2023-07-31T04:23:55;12.50;99.90
1453;DHT22;720;47.738;7.998;2023-07-31T04:26:22;12.50;99.90
1453;DHT22;720;47.738;7.998;2023-07-31T04:28:47;12.60;99.90
1453;DHT22;720;47.738;7.998;2023-07-31T04:33:39;12.70;99.90
1453;DHT22;720;47.738;7.998;2023-07-31T04:36:05;12.70;99.90
1453;DHT22;720;47.738;7.998;2023-07-31T04:38:30;12.80;99.90
1453;DHT22;720;47.738;7.998;2023-07-31T04:40:56;12.80;99.90
1453;DHT22;720;47.738;7.998;2023-07-31T04:43:21;12.80;99.90
1453;DHT22;720;47.738;7.998;2023-07-31T04:45:47;12.80;99.90
1453;DHT22;720;47.738;7.998;2023-07-31T04:48:13;12.80;99.90
1453;DHT22;720;47.738;7.998;2023-07-31T04:50:39;12.90;99.90
1453;DHT22;720;47.738;7.998;2023-07-31T04:53:05;13.00;99.90
1453;DHT22;720;47.738;7.998;2023-07-31T04:55:30;13.00;99.90
1453;DHT22;720;47.738;7.998;2023-07-31T04:57:57;13.00;99.90
1453;DHT22;720;47.738;7.998;2023-07-31T05:00:23;13.00;99.90
1453;DHT22;720;47.738;7.998;2023-07-31T05:02:48;13.10;99.90
1453;DHT22;720;47.738;7.998;2023-07-31T05:05:14;13.20;99.90
1453;DHT22;720;47.738;7.998;2023-07-31T05:07:40;13.20;99.90
1453;DHT22;720;47.738;7.998;2023-07-31T05:10:06;13.30;99.90
1453;DHT22;720;47.738;7.998;2023-07-31T05:12:31;13.30;99.90
1453;DHT22;720;47.738;7.998;2023-07-31T05:14:57;13.40;99.90
1453;DHT22;720;47.738;7.998;2023-07-31T05:17:23;13.50;99.90
1453;DHT22;720;47.738;7.998;2023-07-31T05:19:48;13.40;99.90
1453;DHT22;720;47.738;7.998;2023-07-31T05:22:14;13.50;99.90
1453;DHT22;720;47.738;7.998;2023-07-31T05:24:39;13.50;99.90
1453;DHT22;720;47.738;7.998;2023-07-31T05:27:05;13.80;99.90
1453;DHT22;720;47.738;7.998;2023-07-31T05:29:31;13.70;99.90
1453;DHT22;720;47.738;7.998;2023-07-31T05:31:57;13.70;99.90
1453;DHT22;720;47.738;7.998;2023-07-31T05:34:22;13.80;99.90
1453;DHT22;720;47.738;7.998;2023-07-31T05:36:48;13.80;99.90
1453;DHT22;720;47.738;7.998;2023-07-31T05:39:14;13.90;99.90
1453;DHT22;720;47.738;7.998;2023-07-31T05:41:39;13.90;99.90
1453;DHT22;720;47.738;7.998;2023-07-31T05:44:05;14.00;99.90
1453;DHT22;720;47.738;7.998;2023-07-31T05:46:30;14.00;99.90
1453;DHT22;720;47.738;7.998;2023-07-31T05:48:56;13.90;99.90
1453;DHT22;720;47.738;7.998;2023-07-31T05:51:22;14.20;99.90
1453;DHT22;720;47.738;7.998;2023-07-31T05:53:47;14.20;99.90
1453;DHT22;720;47.738;7.998;2023-07-31T05:56:13;14.30;99.90
1453;DHT22;720;47.738;7.998;2023-07-31T05:58:39;14.40;99.90
1453;DHT22;720;47.738;7.998;2023-07-31T06:01:04;14.50;99.90
1453;DHT22;720;47.738;7.998;2023-07-31T06:03:30;14.60;99.90
1453;DHT22;720;47.738;7.998;2023-07-31T06:05:56;14.70;99.90
1453;DHT22;720;47.738;7.998;2023-07-31T06:08:21;14.90;99.90
1453;DHT22;720;47.738;7.998;2023-07-31T06:10:47;15.00;99.90
1453;DHT22;720;47.738;7.998;2023-07-31T06:13:12;14.90;99.90
1453;DHT22;720;47.738;7.998;2023-07-31T06:15:38;15.20;99.90
1453;DHT22;720;47.738;7.998;2023-07-31T06:18:04;15.30;99.90
1453;DHT22;720;47.738;7.998;2023-07-31T06:20:33;15.40;99.90
1453;DHT22;720;47.738;7.998;2023-07-31T06:22:59;15.50;99.90
1453;DHT22;720;47.738;7.998;2023-07-31T06:25:25;15.70;99.90
1453;DHT22;720;47.738;7.998;2023-07-31T06:27:50;15.90;99.90
1453;DHT22;720;47.738;7.998;2023-07-31T06:30:16;16.40;99.90
1453;DHT22;720;47.738;7.998;2023-07-31T06:32:42;17.40;99.90
1453;DHT22;720;47.738;7.998;2023-07-31T06:35:08;17.20;99.90
1453;DHT22;720;47.738;7.998;2023-07-31T06:37:34;17.70;99.50
1453;DHT22;720;47.738;7.998;2023-07-31T06:39:59;18.10;98.90
1453;DHT22;720;47.738;7.998;2023-07-31T06:42:25;18.20;98.10
1453;DHT22;720;47.738;7.998;2023-07-31T06:44:51;18.20;97.30
1453;DHT22;720;47.738;7.998;2023-07-31T06:47:16;18.00;97.30
1453;DHT22;720;47.738;7.998;2023-07-31T06:49:42;17.80;97.30
1453;DHT22;720;47.738;7.998;2023-07-31T06:52:08;17.70;97.80
1453;DHT22;720;47.738;7.998;2023-07-31T06:54:33;17.70;97.60
1453;DHT22;720;47.738;7.998;2023-07-31T06:56:59;17.80;98.00
1453;DHT22;720;47.738;7.998;2023-07-31T06:59:24;17.90;97.20
1453;DHT22;720;47.738;7.998;2023-07-31T07:01:50;17.90;97.10
1453;DHT22;720;47.738;7.998;2023-07-31T07:04:16;17.90;96.80
1453;DHT22;720;47.738;7.998;2023-07-31T07:06:41;18.00;96.80
1453;DHT22;720;47.738;7.998;2023-07-31T07:09:07;18.00;96.70
1453;DHT22;720;47.738;7.998;2023-07-31T07:11:33;18.00;96.60
1453;DHT22;720;47.738;7.998;2023-07-31T07:13:59;18.20;96.60
1453;DHT22;720;47.738;7.998;2023-07-31T07:16:25;19.00;99.90
1453;DHT22;720;47.738;7.998;2023-07-31T07:18:51;19.20;99.90
1453;DHT22;720;47.738;7.998;2023-07-31T07:21:17;19.40;95.20
1453;DHT22;720;47.738;7.998;2023-07-31T07:23:43;19.50;93.50
1453;DHT22;720;47.738;7.998;2023-07-31T07:26:09;19.50;99.90
1453;DHT22;720;47.738;7.998;2023-07-31T07:28:34;19.40;93.00
1453;DHT22;720;47.738;7.998;2023-07-31T07:31:02;19.50;92.80
1453;DHT22;720;47.738;7.998;2023-07-31T07:33:28;19.80;92.70
1453;DHT22;720;47.738;7.998;2023-07-31T07:35:54;20.30;91.10
1453;DHT22;720;47.738;7.998;2023-07-31T07:38:19;20.90;90.10
1453;DHT22;720;47.738;7.998;2023-07-31T07:40:45;21.30;89.60
1453;DHT22;720;47.738;7.998;2023-07-31T07:43:13;21.50;87.80
1453;DHT22;720;47.738;7.998;2023-07-31T07:45:39;21.60;85.70
1453;DHT22;720;47.738;7.998;2023-07-31T07:48:05;21.30;85.10
1453;DHT22;720;47.738;7.998;2023-07-31T07:50:30;20.90;88.90
1453;DHT22;720;47.738;7.998;2023-07-31T07:52:56;20.50;88.40
1453;DHT22;720;47.738;7.998;2023-07-31T07:55:22;19.90;89.70
1453;DHT22;720;47.738;7.998;2023-07-31T07:57:47;19.60;90.50
1453;DHT22;720;47.738;7.998;2023-07-31T08:00:15;19.50;89.50
1453;DHT22;720;47.738;7.998;2023-07-31T08:02:43;19.70;89.30
1453;DHT22;720;47.738;7.998;2023-07-31T08:05:09;19.80;90.80
1453;DHT22;720;47.738;7.998;2023-07-31T08:07:35;20.10;89.70
1453;DHT22;720;47.738;7.998;2023-07-31T08:10:00;20.50;88.40
1453;DHT22;720;47.738;7.998;2023-07-31T08:12:26;20.80;86.10
1453;DHT22;720;47.738;7.998;2023-07-31T08:14:52;21.00;85.00
1453;DHT22;720;47.738;7.998;2023-07-31T08:17:17;21.40;84.90
1453;DHT22;720;47.738;7.998;2023-07-31T08:19:43;22.20;85.30
1453;DHT22;720;47.738;7.998;2023-07-31T08:22:09;23.60;82.20
1453;DHT22;720;47.738;7.998;2023-07-31T08:24:35;24.50;78.20
1453;DHT22;720;47.738;7.998;2023-07-31T08:27:00;24.50;75.20
1453;DHT22;720;47.738;7.998;2023-07-31T08:29:26;24.50;72.80
1453;DHT22;720;47.738;7.998;2023-07-31T08:31:52;24.70;75.80
1453;DHT22;720;47.738;7.998;2023-07-31T08:34:17;25.20;72.10
1453;DHT22;720;47.738;7.998;2023-07-31T08:36:43;25.90;68.20
1453;DHT22;720;47.738;7.998;2023-07-31T08:39:09;26.30;68.60
1453;DHT22;720;47.738;7.998;2023-07-31T08:41:38;27.50;63.90
1453;DHT22;720;47.738;7.998;2023-07-31T08:44:05;29.10;59.30
1453;DHT22;720;47.738;7.998;2023-07-31T08:46:31;29.80;56.80
1453;DHT22;720;47.738;7.998;2023-07-31T08:48:59;30.30;78.50
1453;DHT22;720;47.738;7.998;2023-07-31T08:51:26;30.60;55.60
1453;DHT22;720;47.738;7.998;2023-07-31T08:53:53;30.60;51.80
1453;DHT22;720;47.738;7.998;2023-07-31T08:56:19;30.00;52.40
1453;DHT22;720;47.738;7.998;2023-07-31T08:58:46;27.40;71.80
1453;DHT22;720;47.738;7.998;2023-07-31T09:01:12;27.50;55.40
1453;DHT22;720;47.738;7.998;2023-07-31T09:03:39;26.70;57.50
1453;DHT22;720;47.738;7.998;2023-07-31T09:06:06;26.40;57.80
1453;DHT22;720;47.738;7.998;2023-07-31T09:08:32;25.80;59.40
1453;DHT22;720;47.738;7.998;2023-07-31T09:11:02;25.30;59.90
1453;DHT22;720;47.738;7.998;2023-07-31T09:13:31;24.90;61.70
1453;DHT22;720;47.738;7.998;2023-07-31T09:15:57;24.50;65.80
1453;DHT22;720;47.738;7.998;2023-07-31T09:18:23;24.00;65.50
1453;DHT22;720;47.738;7.998;2023-07-31T09:21:05;23.00;65.70
1453;DHT22;720;47.738;7.998;2023-07-31T09:23:44;22.80;66.90
1453;DHT22;720;47.738;7.998;2023-07-31T09:26:10;22.70;68.70
1453;DHT22;720;47.738;7.998;2023-07-31T09:28:36;22.60;71.70
1453;DHT22;720;47.738;7.998;2023-07-31T09:31:02;22.40;69.30
1453;DHT22;720;47.738;7.998;2023-07-31T09:33:27;22.70;70.60
1453;DHT22;720;47.738;7.998;2023-07-31T09:35:53;23.20;69.90
1453;DHT22;720;47.738;7.998;2023-07-31T09:38:19;23.40;68.00
1453;DHT22;720;47.738;7.998;2023-07-31T09:40:46;23.20;67.90
1453;DHT22;720;47.738;7.998;2023-07-31T09:43:17;23.20;70.30
1453;DHT22;720;47.738;7.998;2023-07-31T09:45:44;24.20;68.30
1453;DHT22;720;47.738;7.998;2023-07-31T09:48:15;26.00;67.70
1453;DHT22;720;47.738;7.998;2023-07-31T09:50:46;26.80;59.50
1453;DHT22;720;47.738;7.998;2023-07-31T09:53:12;28.20;59.40
1453;DHT22;720;47.738;7.998;2023-07-31T09:55:39;29.30;56.40
1453;DHT22;720;47.738;7.998;2023-07-31T09:58:08;29.20;53.80
1453;DHT22;720;47.738;7.998;2023-07-31T10:00:34;29.10;54.80
1453;DHT22;720;47.738;7.998;2023-07-31T10:03:04;28.30;57.20
1453;DHT22;720;47.738;7.998;2023-07-31T10:05:39;28.90;55.90
1453;DHT22;720;47.738;7.998;2023-07-31T10:08:06;29.50;54.90
1453;DHT22;720;47.738;7.998;2023-07-31T10:10:32;29.80;52.10
1453;DHT22;720;47.738;7.998;2023-07-31T10:13:01;29.90;52.10
1453;DHT22;720;47.738;7.998;2023-07-31T10:15:27;28.80;52.20
1453;DHT22;720;47.738;7.998;2023-07-31T10:17:54;28.40;56.20
1453;DHT22;720;47.738;7.998;2023-07-31T10:20:21;28.60;54.10
1453;DHT22;720;47.738;7.998;2023-07-31T10:22:48;29.00;53.30
1453;DHT22;720;47.738;7.998;2023-07-31T10:25:15;28.60;54.50
1453;DHT22;720;47.738;7.998;2023-07-31T10:27:42;28.70;55.00
1453;DHT22;720;47.738;7.998;2023-07-31T10:30:11;28.30;55.80
1453;DHT22;720;47.738;7.998;2023-07-31T10:32:40;28.40;53.90
1453;DHT22;720;47.738;7.998;2023-07-31T10:35:08;27.70;54.30
1453;DHT22;720;47.738;7.998;2023-07-31T10:37:41;27.30;56.80
1453;DHT22;720;47.738;7.998;2023-07-31T10:40:17;27.00;56.50
1453;DHT22;720;47.738;7.998;2023-07-31T10:42:53;26.90;58.90
1453;DHT22;720;47.738;7.998;2023-07-31T10:45:36;27.30;58.30
1453;DHT22;720;47.738;7.998;2023-07-31T10:48:04;27.70;56.50
1453;DHT22;720;47.738;7.998;2023-07-31T10:50:54;27.90;57.50
1453;DHT22;720;47.738;7.998;2023-07-31T10:53:25;28.00;55.30
1453;DHT22;720;47.738;7.998;2023-07-31T10:55:51;28.00;57.70
1453;DHT22;720;47.738;7.998;2023-07-31T10:58:19;27.90;56.40
1453;DHT22;720;47.738;7.998;2023-07-31T11:03:17;26.90;55.00
1453;DHT22;720;47.738;7.998;2023-07-31T11:08:29;26.60;58.10
1453;DHT22;720;47.738;7.998;2023-07-31T11:13:27;27.00;57.50
1453;DHT22;720;47.738;7.998;2023-07-31T11:15:53;26.80;56.00
1453;DHT22;720;47.738;7.998;2023-07-31T11:18:19;26.50;58.50
1453;DHT22;720;47.738;7.998;2023-07-31T11:20:45;26.30;57.60
1453;DHT22;720;47.738;7.998;2023-07-31T11:23:11;25.80;62.60
1453;DHT22;720;47.738;7.998;2023-07-31T11:25:40;26.10;58.70
1453;DHT22;720;47.738;7.998;2023-07-31T11:28:11;26.30;57.50
1453;DHT22;720;47.738;7.998;2023-07-31T11:30:37;26.30;61.20
1453;DHT22;720;47.738;7.998;2023-07-31T11:33:04;26.00;59.20
1453;DHT22;720;47.738;7.998;2023-07-31T11:35:44;25.90;59.20
1453;DHT22;720;47.738;7.998;2023-07-31T11:38:32;25.80;59.20
1453;DHT22;720;47.738;7.998;2023-07-31T11:40:58;25.60;59.30
1453;DHT22;720;47.738;7.998;2023-07-31T11:43:24;25.40;59.10
1453;DHT22;720;47.738;7.998;2023-07-31T11:45:57;25.40;58.80
1453;DHT22;720;47.738;7.998;2023-07-31T11:48:30;25.00;60.30
1453;DHT22;720;47.738;7.998;2023-07-31T11:51:00;24.80;59.50
1453;DHT22;720;47.738;7.998;2023-07-31T11:53:36;24.70;60.90
1453;DHT22;720;47.738;7.998;2023-07-31T11:56:04;24.70;66.20
1453;DHT22;720;47.738;7.998;2023-07-31T11:58:31;24.90;63.50
1453;DHT22;720;47.738;7.998;2023-07-31T12:00:59;25.00;62.80
1453;DHT22;720;47.738;7.998;2023-07-31T12:03:26;24.80;61.40
1453;DHT22;720;47.738;7.998;2023-07-31T12:05:53;24.80;62.30
1453;DHT22;720;47.738;7.998;2023-07-31T12:08:21;25.00;61.50
1453;DHT22;720;47.738;7.998;2023-07-31T12:10:50;25.10;61.10
1453;DHT22;720;47.738;7.998;2023-07-31T12:13:24;25.00;60.80
1453;DHT22;720;47.738;7.998;2023-07-31T12:15:55;24.90;64.50
1453;DHT22;720;47.738;7.998;2023-07-31T12:18:22;24.50;62.00
1453;DHT22;720;47.738;7.998;2023-07-31T12:20:49;23.90;64.60
1453;DHT22;720;47.738;7.998;2023-07-31T12:23:21;23.60;65.60
1453;DHT22;720;47.738;7.998;2023-07-31T12:26:13;23.60;69.40
1453;DHT22;720;47.738;7.998;2023-07-31T12:28:50;23.40;70.60
1453;DHT22;720;47.738;7.998;2023-07-31T12:31:20;23.40;68.60
1453;DHT22;720;47.738;7.998;2023-07-31T12:33:49;23.60;71.90
1453;DHT22;720;47.738;7.998;2023-07-31T12:36:22;23.30;68.70
1453;DHT22;720;47.738;7.998;2023-07-31T12:38:48;22.90;90.00
1453;DHT22;720;47.738;7.998;2023-07-31T12:41:15;23.20;70.20
1453;DHT22;720;47.738;7.998;2023-07-31T12:43:42;23.00;68.80
1453;DHT22;720;47.738;7.998;2023-07-31T12:46:08;23.10;69.00
1453;DHT22;720;47.738;7.998;2023-07-31T12:48:34;23.30;69.50
1453;DHT22;720;47.738;7.998;2023-07-31T12:51:01;23.40;68.60
1453;DHT22;720;47.738;7.998;2023-07-31T12:53:27;23.50;69.40
1453;DHT22;720;47.738;7.998;2023-07-31T12:55:53;23.50;65.20
1453;DHT22;720;47.738;7.998;2023-07-31T12:58:18;23.30;66.60
1453;DHT22;720;47.738;7.998;2023-07-31T13:00:44;23.20;65.50
1453;DHT22;720;47.738;7.998;2023-07-31T13:03:09;23.00;66.10
1453;DHT22;720;47.738;7.998;2023-07-31T13:05:36;23.00;67.90
1453;DHT22;720;47.738;7.998;2023-07-31T13:08:01;23.10;68.00
1453;DHT22;720;47.738;7.998;2023-07-31T13:10:27;23.10;66.10
1453;DHT22;720;47.738;7.998;2023-07-31T13:12:54;23.10;66.60
1453;DHT22;720;47.738;7.998;2023-07-31T13:15:20;23.00;65.10
1453;DHT22;720;47.738;7.998;2023-07-31T13:17:46;23.00;68.80
1453;DHT22;720;47.738;7.998;2023-07-31T13:20:12;23.10;66.00
1453;DHT22;720;47.738;7.998;2023-07-31T13:22:37;23.30;65.60
1453;DHT22;720;47.738;7.998;2023-07-31T13:25:03;23.40;71.10
1453;DHT22;720;47.738;7.998;2023-07-31T13:27:29;23.40;65.70
1453;DHT22;720;47.738;7.998;2023-07-31T13:29:54;23.30;64.80
1453;DHT22;720;47.738;7.998;2023-07-31T13:32:21;23.20;64.50
1453;DHT22;720;47.738;7.998;2023-07-31T13:34:47;23.40;66.50
1453;DHT22;720;47.738;7.998;2023-07-31T13:37:14;23.60;67.50
1453;DHT22;720;47.738;7.998;2023-07-31T13:39:40;23.60;64.90
1453;DHT22;720;47.738;7.998;2023-07-31T13:42:07;23.60;66.80
1453;DHT22;720;47.738;7.998;2023-07-31T13:44:37;23.70;67.20
1453;DHT22;720;47.738;7.998;2023-07-31T13:47:03;23.80;65.80
1453;DHT22;720;47.738;7.998;2023-07-31T13:49:29;24.00;66.00
1453;DHT22;720;47.738;7.998;2023-07-31T13:51:55;24.20;65.90
1453;DHT22;720;47.738;7.998;2023-07-31T13:54:22;24.30;65.30
1453;DHT22;720;47.738;7.998;2023-07-31T13:56:49;24.10;66.70
1453;DHT22;720;47.738;7.998;2023-07-31T13:59:14;24.00;66.50
1453;DHT22;720;47.738;7.998;2023-07-31T14:01:42;24.10;69.40
1453;DHT22;720;47.738;7.998;2023-07-31T14:04:08;23.90;64.90
1453;DHT22;720;47.738;7.998;2023-07-31T14:06:34;24.00;67.30
1453;DHT22;720;47.738;7.998;2023-07-31T14:08:59;24.10;93.20
1453;DHT22;720;47.738;7.998;2023-07-31T14:11:25;24.40;68.70
1453;DHT22;720;47.738;7.998;2023-07-31T14:13:51;24.50;65.80
1453;DHT22;720;47.738;7.998;2023-07-31T14:16:17;24.60;66.00
1453;DHT22;720;47.738;7.998;2023-07-31T14:18:43;24.60;67.00
1453;DHT22;720;47.738;7.998;2023-07-31T14:21:08;24.70;66.00
1453;DHT22;720;47.738;7.998;2023-07-31T14:23:34;24.70;65.20
1453;DHT22;720;47.738;7.998;2023-07-31T14:26:00;24.70;63.20
1453;DHT22;720;47.738;7.998;2023-07-31T14:28:26;24.60;62.90
1453;DHT22;720;47.738;7.998;2023-07-31T14:30:51;24.60;66.00
1453;DHT22;720;47.738;7.998;2023-07-31T14:33:17;24.60;63.30
1453;DHT22;720;47.738;7.998;2023-07-31T14:35:43;24.40;63.70
1453;DHT22;720;47.738;7.998;2023-07-31T14:38:08;24.40;67.40
1453;DHT22;720;47.738;7.998;2023-07-31T14:43:00;24.40;64.30
1453;DHT22;720;47.738;7.998;2023-07-31T14:45:26;24.40;63.40
1453;DHT22;720;47.738;7.998;2023-07-31T14:47:51;24.40;64.70
1453;DHT22;720;47.738;7.998;2023-07-31T14:50:19;24.40;65.50
1453;DHT22;720;47.738;7.998;2023-07-31T14:52:45;24.40;65.60
1453;DHT22;720;47.738;7.998;2023-07-31T14:55:11;24.30;64.80
1453;DHT22;720;47.738;7.998;2023-07-31T14:57:36;24.10;66.70
1453;DHT22;720;47.738;7.998;2023-07-31T15:00:02;23.90;69.50
1453;DHT22;720;47.738;7.998;2023-07-31T15:02:35;23.90;66.80
1453;DHT22;720;47.738;7.998;2023-07-31T15:05:01;23.90;66.00
1453;DHT22;720;47.738;7.998;2023-07-31T15:07:27;24.00;66.00
1453;DHT22;720;47.738;7.998;2023-07-31T15:09:52;24.20;67.80
1453;DHT22;720;47.738;7.998;2023-07-31T15:12:18;24.20;66.30
1453;DHT22;720;47.738;7.998;2023-07-31T15:14:44;24.20;66.70
1453;DHT22;720;47.738;7.998;2023-07-31T15:17:09;24.30;67.30
1453;DHT22;720;47.738;7.998;2023-07-31T15:19:35;24.20;71.20
1453;DHT22;720;47.738;7.998;2023-07-31T15:22:02;24.20;70.40
1453;DHT22;720;47.738;7.998;2023-07-31T15:24:28;23.90;69.50
1453;DHT22;720;47.738;7.998;2023-07-31T15:26:54;23.80;68.00
1453;DHT22;720;47.738;7.998;2023-07-31T15:29:20;23.90;68.90
1453;DHT22;720;47.738;7.998;2023-07-31T15:31:46;24.00;69.70
1453;DHT22;720;47.738;7.998;2023-07-31T15:34:13;24.00;69.10
1453;DHT22;720;47.738;7.998;2023-07-31T15:36:39;23.90;69.80
1453;DHT22;720;47.738;7.998;2023-07-31T15:39:05;23.90;70.00
1453;DHT22;720;47.738;7.998;2023-07-31T15:41:36;23.80;70.80
1453;DHT22;720;47.738;7.998;2023-07-31T15:44:02;23.70;66.50
1453;DHT22;720;47.738;7.998;2023-07-31T15:46:28;23.60;71.20
1453;DHT22;720;47.738;7.998;2023-07-31T15:48:53;23.80;87.90
1453;DHT22;720;47.738;7.998;2023-07-31T15:51:19;23.50;66.70
1453;DHT22;720;47.738;7.998;2023-07-31T15:53:45;23.50;69.40
1453;DHT22;720;47.738;7.998;2023-07-31T15:56:10;23.30;66.70
1453;DHT22;720;47.738;7.998;2023-07-31T15:58:36;23.20;67.70
1453;DHT22;720;47.738;7.998;2023-07-31T16:01:02;23.20;66.70
1453;DHT22;720;47.738;7.998;2023-07-31T16:03:28;23.20;66.40
1453;DHT22;720;47.738;7.998;2023-07-31T16:05:53;23.30;66.60
1453;DHT22;720;47.738;7.998;2023-07-31T16:08:19;23.30;70.20
1453;DHT22;720;47.738;7.998;2023-07-31T16:10:44;23.30;68.70
1453;DHT22;720;47.738;7.998;2023-07-31T16:13:10;23.30;68.40
1453;DHT22;720;47.738;7.998;2023-07-31T16:15:36;23.20;67.90
1453;DHT22;720;47.738;7.998;2023-07-31T16:18:01;23.10;67.40
1453;DHT22;720;47.738;7.998;2023-07-31T16:20:27;23.00;68.90
1453;DHT22;720;47.738;7.998;2023-07-31T16:22:54;22.90;73.80
1453;DHT22;720;47.738;7.998;2023-07-31T16:25:20;22.70;95.40
1453;DHT22;720;47.738;7.998;2023-07-31T16:27:45;22.80;71.30
1453;DHT22;720;47.738;7.998;2023-07-31T16:30:11;22.70;74.50
1453;DHT22;720;47.738;7.998;2023-07-31T16:32:37;22.60;73.50
1453;DHT22;720;47.738;7.998;2023-07-31T16:35:03;22.60;73.90